createdAt,value
2018-05-02T00:04:58.658Z,7.70
2018-05-02T00:10:02.000Z,7.80
2018-05-02T00:15:05.271Z,7.70
2018-05-02T00:20:08.508Z,7.40
2018-05-02T00:25:11.748Z,7.50
2018-05-02T00:30:15.000Z,7.40
2018-05-02T00:35:18.238Z,7.40
2018-05-02T00:40:21.479Z,7.30
2018-05-02T00:45:24.740Z,7.20
2018-05-02T00:50:27.983Z,7.20
2018-05-02T00:55:31.237Z,7.30
2018-05-02T01:00:35.246Z,7.10
2018-05-02T01:05:39.999Z,6.90
2018-05-02T01:10:43.249Z,6.90
2018-05-02T01:15:46.493Z,7.10
2018-05-02T01:20:49.740Z,7.30
2018-05-02T01:25:53.752Z,6.90
2018-05-02T01:30:57.836Z,6.80
2018-05-02T01:36:01.012Z,6.70
2018-05-02T01:41:04.258Z,6.80
2018-05-02T01:46:07.517Z,6.90
2018-05-02T01:51:10.767Z,6.90
2018-05-02T01:56:14.017Z,6.80
2018-05-02T02:01:18.043Z,6.80
2018-05-02T02:06:21.291Z,6.70
2018-05-02T02:11:24.548Z,6.70
2018-05-02T02:16:27.882Z,6.80
2018-05-02T02:21:31.923Z,6.60
2018-05-02T02:26:35.170Z,6.60
2018-05-02T02:31:38.427Z,6.50
2018-05-02T02:36:41.691Z,6.60
2018-05-02T02:41:44.939Z,7.00
2018-05-02T02:46:48.296Z,8.70
2018-05-02T02:51:51.532Z,6.10
2018-05-02T02:56:54.803Z,9.20
2018-05-02T03:01:58.038Z,8.00
2018-05-02T03:07:01.277Z,6.60
2018-05-02T03:12:05.299Z,6.20
2018-05-02T03:17:09.300Z,6.00
2018-05-02T03:22:12.586Z,5.90
2018-05-02T03:27:15.840Z,6.30
2018-05-02T03:32:19.087Z,6.20
2018-05-02T03:37:22.335Z,6.10
2018-05-02T03:42:25.576Z,6.00
2018-05-02T03:47:28.858Z,5.90
2018-05-02T03:52:32.100Z,6.00
2018-05-02T03:57:35.367Z,5.90
2018-05-02T04:02:50.541Z,5.90
2018-05-02T04:07:53.827Z,6.20
2018-05-02T04:12:57.051Z,6.00
2018-05-02T04:18:00.292Z,6.00
2018-05-02T04:23:03.547Z,6.00
2018-05-02T04:28:06.770Z,6.10
2018-05-02T04:33:10.018Z,6.10
2018-05-02T04:38:14.033Z,6.10
2018-05-02T04:43:17.289Z,6.00
2018-05-02T04:48:21.367Z,6.40
2018-05-02T04:53:24.610Z,6.40
2018-05-02T04:58:27.852Z,6.90
2018-05-02T05:03:31.110Z,7.00
2018-05-02T05:08:34.366Z,7.20
2018-05-02T05:13:37.671Z,7.30
2018-05-02T05:18:40.929Z,7.60
2018-05-02T05:23:44.965Z,8.10
2018-05-02T05:28:49.016Z,8.00
2018-05-02T05:33:52.268Z,8.50
2018-05-02T05:38:55.553Z,8.90
2018-05-02T05:43:58.800Z,8.80
2018-05-02T05:49:02.072Z,9.10
2018-05-02T05:54:05.354Z,9.70
2018-05-02T05:59:09.347Z,9.90
2018-05-02T06:04:13.363Z,9.90
2018-05-02T06:09:17.379Z,10.40
2018-05-02T06:14:20.635Z,10.40
2018-05-02T06:19:23.923Z,10.40
2018-05-02T06:24:27.944Z,10.60
2018-05-02T06:29:31.220Z,10.60
2018-05-02T06:34:34.497Z,10.70
2018-05-02T06:39:37.755Z,11.50
2018-05-02T06:44:41.866Z,11.80
2018-05-02T06:49:45.840Z,13.10
2018-05-02T06:54:49.105Z,13.00
2018-05-02T06:59:52.353Z,13.20
2018-05-02T07:04:55.632Z,13.80
2018-05-02T07:09:58.898Z,13.10
2018-05-02T07:15:02.156Z,13.70
2018-05-02T07:20:06.175Z,14.20
2018-05-02T07:25:13.829Z,14.20
2018-05-02T07:30:18.001Z,14.50
2018-05-02T07:35:21.269Z,15.80
2018-05-02T07:40:24.547Z,16.60
2018-05-02T07:45:27.796Z,14.90
2018-05-02T07:50:31.080Z,14.70
2018-05-02T07:55:34.332Z,16.90
2018-05-02T08:00:37.584Z,16.20
2018-05-02T08:05:40.854Z,16.00
2018-05-02T08:10:44.106Z,15.90
2018-05-02T08:15:47.467Z,17.40
2018-05-02T08:20:50.719Z,18.50
2018-05-02T08:25:54.159Z,17.10
2018-05-02T08:30:57.432Z,18.60
2018-05-02T08:36:00.694Z,17.50
2018-05-02T08:41:03.963Z,17.90
2018-05-02T08:46:07.336Z,18.80
2018-05-02T08:51:11.455Z,19.20
2018-05-02T08:56:14.724Z,19.10
2018-05-02T09:01:17.992Z,18.60
2018-05-02T09:06:21.255Z,18.90
2018-05-02T09:11:24.527Z,19.80
2018-05-02T09:16:28.566Z,19.60
2018-05-02T09:21:31.844Z,19.50
2018-05-02T09:32:09.512Z,20.80
2018-05-02T09:37:12.763Z,20.80
2018-05-02T09:42:16.019Z,21.50
2018-05-02T09:47:19.300Z,19.00
2018-05-02T09:52:23.339Z,21.10
2018-05-02T09:57:26.617Z,21.10
2018-05-02T10:02:29.891Z,22.50
2018-05-02T10:07:33.203Z,20.40
2018-05-02T10:12:36.471Z,18.30
2018-05-02T10:17:39.751Z,20.40
2018-05-02T10:22:43.012Z,19.50
2018-05-02T10:27:47.023Z,19.70
2018-05-02T10:32:51.071Z,19.60
2018-05-02T10:37:54.355Z,19.50
2018-05-02T10:42:58.408Z,21.80
2018-05-02T10:48:01.692Z,21.70
2018-05-02T10:53:04.980Z,20.30
2018-05-02T10:58:09.008Z,19.70
2018-05-02T11:03:13.027Z,19.60
2018-05-02T11:08:16.366Z,20.70
2018-05-02T11:13:19.563Z,19.70
2018-05-02T11:18:23.599Z,20.20
2018-05-02T11:23:26.910Z,20.10
2018-05-02T11:28:31.135Z,21.30
2018-05-02T11:33:34.321Z,19.80
2018-05-02T11:38:37.574Z,21.70
2018-05-02T11:43:40.847Z,21.10
2018-05-02T11:48:45.627Z,23.50
2018-05-02T11:53:48.902Z,23.30
2018-05-02T11:58:52.927Z,21.70
2018-05-02T12:03:57.033Z,20.70
2018-05-02T12:09:00.304Z,20.60
2018-05-02T12:14:03.567Z,21.90
2018-05-02T12:19:06.832Z,21.50
2018-05-02T12:24:10.089Z,21.90
2018-05-02T12:29:13.371Z,22.50
2018-05-02T12:34:16.639Z,22.60
2018-05-02T12:39:19.995Z,21.30
2018-05-02T12:44:23.283Z,22.40
2018-05-02T12:49:26.547Z,24.70
2018-05-02T12:54:29.834Z,26.20
2018-05-02T12:59:33.096Z,24.60
2018-05-02T13:04:36.360Z,24.60
2018-05-02T13:09:40.377Z,25.80
2018-05-02T13:14:43.632Z,25.70
2018-05-02T13:19:46.905Z,22.30
2018-05-02T13:24:50.947Z,24.40
2018-05-02T13:29:54.991Z,23.70
2018-05-02T13:34:58.270Z,23.60
2018-05-02T13:40:02.310Z,23.50
2018-05-02T13:45:05.571Z,23.50
2018-05-02T13:50:08.835Z,22.60
2018-05-02T13:55:12.172Z,22.90
2018-05-02T14:00:15.444Z,23.60
2018-05-02T14:05:19.528Z,22.50
2018-05-02T14:10:22.787Z,22.50
2018-05-02T14:15:26.040Z,23.90
2018-05-02T14:20:29.294Z,22.00
2018-05-02T14:25:32.546Z,23.30
2018-05-02T14:30:35.808Z,22.50
2018-05-02T14:35:39.085Z,23.20
2018-05-02T14:40:42.353Z,24.70
2018-05-02T14:45:45.628Z,22.70
2018-05-02T14:50:48.910Z,23.50
2018-05-02T14:55:52.944Z,23.10
2018-05-02T15:00:56.983Z,21.70
2018-05-02T15:06:01.007Z,21.10
2018-05-02T15:11:04.278Z,21.00
2018-05-02T15:16:07.526Z,21.40
2018-05-02T15:21:11.540Z,21.00
2018-05-02T15:26:14.798Z,21.00
2018-05-02T15:31:18.060Z,21.90
2018-05-02T15:36:21.337Z,20.50
2018-05-02T15:41:24.587Z,20.40
2018-05-02T15:46:27.850Z,20.90
2018-05-02T15:51:31.099Z,20.60
2018-05-02T15:56:34.418Z,20.10
2018-05-02T16:01:38.432Z,20.80
2018-05-02T16:06:41.682Z,20.70
2018-05-02T16:11:44.940Z,21.70
2018-05-02T16:16:48.183Z,22.20
2018-05-02T16:21:51.472Z,20.60
2018-05-02T16:26:54.721Z,20.90
2018-05-02T16:31:57.975Z,21.90
2018-05-02T16:37:01.991Z,19.60
2018-05-02T16:42:05.264Z,19.40
2018-05-02T16:47:08.593Z,19.40
2018-05-02T16:52:11.859Z,19.50
2018-05-02T16:57:15.148Z,19.20
2018-05-02T17:02:18.421Z,19.70
2018-05-02T17:07:21.987Z,18.90
2018-05-02T17:12:26.000Z,18.50
2018-05-02T17:17:29.251Z,18.40
2018-05-02T17:22:32.507Z,18.40
2018-05-02T17:27:36.744Z,18.50
2018-05-02T17:32:40.012Z,18.40
2018-05-02T17:37:43.291Z,18.50
2018-05-02T17:42:46.558Z,18.20
2018-05-02T17:47:49.805Z,18.00
2018-05-02T17:52:53.154Z,18.40
2018-05-02T17:57:56.339Z,18.20
2018-05-02T18:02:59.594Z,17.90
2018-05-02T18:08:03.620Z,17.90
2018-05-02T18:13:07.639Z,17.60
2018-05-02T18:18:11.664Z,17.40
2018-05-02T18:23:15.692Z,17.30
2018-05-02T18:28:19.704Z,17.40
2018-05-02T18:33:23.747Z,17.50
2018-05-02T18:38:27.752Z,17.40
2018-05-02T18:43:31.018Z,17.40
2018-05-02T18:48:34.276Z,17.10
2018-05-02T18:53:37.534Z,17.10
2018-05-02T18:58:41.595Z,16.90
2018-05-02T19:03:44.907Z,16.90
2018-05-02T19:08:48.185Z,16.60
2018-05-02T19:14:06.143Z,16.50
2018-05-02T19:19:15.317Z,16.50
2018-05-02T19:24:18.616Z,16.20
2018-05-02T19:29:21.919Z,16.30
2018-05-02T19:34:25.958Z,16.20
2018-05-02T19:39:29.203Z,16.10
2018-05-02T19:44:32.500Z,15.90
2018-05-02T19:49:36.923Z,15.60
2018-05-02T19:54:40.180Z,15.50
2018-05-02T19:59:43.521Z,15.60
2018-05-02T20:04:46.788Z,15.70
2018-05-02T20:09:55.764Z,15.70
2018-05-02T20:14:59.012Z,15.80
2018-05-02T20:20:03.064Z,15.30
2018-05-02T20:25:08.228Z,15.30
2018-05-02T20:30:11.473Z,15.00
2018-05-02T20:35:14.752Z,15.20
2018-05-02T20:40:18.107Z,15.50
2018-05-02T20:45:21.446Z,15.50
2018-05-02T20:50:24.694Z,15.40
2018-05-02T20:55:28.756Z,15.50
2018-05-02T21:00:32.151Z,15.40
2018-05-02T21:05:35.415Z,15.50
2018-05-02T21:10:38.671Z,15.40
2018-05-02T21:15:41.923Z,15.30
2018-05-02T21:20:45.195Z,15.30
2018-05-02T21:25:49.422Z,15.20
2018-05-02T21:30:56.317Z,14.60
2018-05-02T21:35:59.579Z,14.60
2018-05-02T21:41:02.840Z,14.30
2018-05-02T21:46:06.859Z,14.50
2018-05-02T21:51:10.103Z,14.50
2018-05-02T21:56:13.369Z,14.70
2018-05-02T22:01:16.626Z,14.50
2018-05-02T22:06:19.887Z,15.10
2018-05-02T22:11:23.152Z,15.40
2018-05-02T22:16:26.412Z,15.30
2018-05-02T22:21:30.429Z,15.50
2018-05-02T22:26:33.704Z,15.40
2018-05-02T22:31:37.012Z,15.50
2018-05-02T22:36:40.295Z,15.30
2018-05-02T22:41:43.561Z,15.50
2018-05-02T22:46:46.948Z,15.60
2018-05-02T22:51:50.215Z,15.60
2018-05-02T22:56:53.491Z,15.60
2018-05-02T23:01:56.787Z,15.70
2018-05-02T23:07:00.081Z,15.60
2018-05-02T23:12:03.360Z,15.60
2018-05-02T23:17:06.640Z,15.70
2018-05-02T23:22:09.900Z,15.80
2018-05-02T23:27:13.148Z,15.80
2018-05-02T23:32:16.411Z,15.60
2018-05-02T23:37:19.680Z,15.30
2018-05-02T23:42:22.955Z,15.50
2018-05-02T23:47:26.209Z,15.70
2018-05-02T23:52:29.462Z,15.90
2018-05-02T23:57:32.724Z,15.50
